Time;durP1;ratioP1;P1;durP2;ratioP2;P2;SDS_P1;SDS_P2;PMS_P1;PMS_P2;Temp;Humidity;BMP_temperature;BMP_pressure;BME280_temperature;BME280_humidity;BME280_pressure;Samples;Min_cycle;Max_cycle;Signal;HPM_P1;HPM_P2
2022/01/08 00:00:09;;;;;;;3.10;1.90;;;;;;;-0.05;100.00;100198.31;106946;1290;74629;-82
2022/01/08 00:02:36;;;;;;;4.00;2.30;;;;;;;-0.03;100.00;100201.35;106927;1290;60322;-81
2022/01/08 00:05:03;;;;;;;3.60;1.50;;;;;;;-0.02;100.00;100202.46;106902;1289;60360;-80
2022/01/08 00:07:29;;;;;;;8.10;2.60;;;;;;;0.01;100.00;100201.73;106836;1290;74802;-81
2022/01/08 00:09:56;;;;;;;5.70;3.00;;;;;;;0.08;100.00;100202.11;106909;1288;71745;-80
2022/01/08 00:12:23;;;;;;;3.70;2.00;;;;;;;0.12;100.00;100207.65;106911;1290;73131;-81
2022/01/08 00:14:50;;;;;;;6.80;2.00;;;;;;;0.18;100.00;100207.88;106761;1290;62440;-80
2022/01/08 00:17:17;;;;;;;3.20;1.70;;;;;;;0.24;100.00;100206.40;106759;1290;60623;-79
2022/01/08 00:19:43;;;;;;;7.50;3.00;;;;;;;0.29;100.00;100208.94;106919;1290;76001;-81
2022/01/08 00:22:11;;;;;;;10.40;3.00;;;;;;;0.35;100.00;100210.18;106941;1290;59277;-82
2022/01/08 00:24:38;;;;;;;6.60;2.60;;;;;;;0.39;100.00;100208.33;106934;1289;72955;-82
2022/01/08 00:27:05;;;;;;;3.60;2.10;;;;;;;0.42;100.00;100212.13;106872;1288;60201;-80
2022/01/08 00:29:32;;;;;;;5.60;2.90;;;;;;;0.44;100.00;100212.10;106750;1290;60655;-81
2022/01/08 00:32:08;;;;;;;6.00;3.20;;;;;;;0.47;100.00;100208.52;106879;1278;75085;-80
2022/01/08 00:34:35;;;;;;;6.50;3.40;;;;;;;0.50;100.00;100204.83;106904;1278;72295;-80
2022/01/08 00:37:07;;;;;;;7.00;3.30;;;;;;;0.53;100.00;100204.80;106793;1278;74882;-80
2022/01/08 00:39:35;;;;;;;8.00;3.50;;;;;;;0.55;100.00;100205.11;106981;1287;59297;-82
2022/01/08 00:42:02;;;;;;;9.80;4.10;;;;;;;0.56;100.00;100207.27;106900;1288;61843;-82
2022/01/08 00:44:29;;;;;;;6.20;3.50;;;;;;;0.58;100.00;100202.97;106801;1290;75067;-82
2022/01/08 00:46:55;;;;;;;8.00;4.20;;;;;;;0.62;100.00;100197.30;107022;1288;72896;-82
2022/01/08 00:49:24;;;;;;;9.20;4.20;;;;;;;0.64;100.00;100198.49;106858;1277;72869;-78
2022/01/08 00:51:51;;;;;;;7.10;4.00;;;;;;;0.66;100.00;100190.88;106868;1277;61400;-82
2022/01/08 00:54:18;;;;;;;7.80;3.90;;;;;;;0.69;100.00;100199.14;107013;1288;61130;-83
2022/01/08 00:56:45;;;;;;;4.30;2.90;;;;;;;0.69;100.00;100193.08;106900;1289;76017;-80
2022/01/08 00:59:11;;;;;;;4.70;3.00;;;;;;;0.67;100.00;100193.80;107034;1286;59128;-82
2022/01/08 01:01:38;;;;;;;4.70;3.50;;;;;;;0.64;100.00;100189.87;106872;1288;74276;-83
2022/01/08 01:04:05;;;;;;;7.90;4.10;;;;;;;0.60;100.00;100187.70;107009;1287;60290;-80
2022/01/08 01:06:34;;;;;;;10.20;5.50;;;;;;;0.58;100.00;100186.30;106966;1287;60694;-81
2022/01/08 01:09:02;;;;;;;6.40;3.40;;;;;;;0.57;100.00;100189.52;106887;1288;74928;-79
2022/01/08 01:11:28;;;;;;;8.00;4.70;;;;;;;0.56;100.00;100186.65;106892;1287;70531;-80
2022/01/08 01:13:54;;;;;;;8.30;5.30;;;;;;;0.54;100.00;100184.15;107058;1288;72829;-80
2022/01/08 01:16:21;;;;;;;9.20;5.20;;;;;;;0.55;100.00;100184.77;106938;1278;59537;-80
2022/01/08 01:18:48;;;;;;;7.70;5.40;;;;;;;0.56;100.00;100186.09;107021;1288;60348;-83
2022/01/08 01:21:14;;;;;;;7.00;4.60;;;;;;;0.57;100.00;100187.73;107033;1288;74994;-81
2022/01/08 01:23:43;;;;;;;9.60;5.40;;;;;;;0.58;100.00;100190.99;107021;1287;71547;-82
2022/01/08 01:26:15;;;;;;;12.50;6.30;;;;;;;0.59;100.00;100187.06;106798;1290;73956;-82
2022/01/08 01:28:49;;;;;;;11.80;7.60;;;;;;;0.63;100.00;100182.55;107013;1288;61433;-80
2022/01/08 01:47:15;;;;;;;14.90;6.80;;;;;;;0.74;100.00;100176.63;106976;1289;75024;-81
2022/01/08 01:49:45;;;;;;;11.90;6.90;;;;;;;0.72;100.00;100175.74;107010;1288;72768;-79
2022/01/08 01:52:14;;;;;;;8.70;4.50;;;;;;;0.71;100.00;100169.95;106973;1290;72946;-81
2022/01/08 01:54:44;;;;;;;10.20;6.40;;;;;;;0.67;100.00;100161.70;106905;1277;59581;-78
2022/01/08 01:57:16;;;;;;;12.10;7.50;;;;;;;0.64;100.00;100164.24;106966;1281;60802;-81
2022/01/08 01:59:43;;;;;;;11.50;6.80;;;;;;;0.63;100.00;100168.54;106917;1277;75905;-83
2022/01/08 02:02:10;;;;;;;10.70;6.20;;;;;;;0.63;100.00;100171.83;106976;1278;73992;-81
2022/01/08 02:04:37;;;;;;;13.60;7.40;;;;;;;0.63;100.00;100166.55;106995;1288;72987;-81
2022/01/08 02:07:04;;;;;;;11.30;7.00;;;;;;;0.63;100.00;100164.30;106983;1288;61863;-81
2022/01/08 02:09:34;;;;;;;12.30;5.90;;;;;;;0.61;100.00;100164.60;106895;1288;59256;-79
2022/01/08 02:12:04;;;;;;;11.50;7.00;;;;;;;0.59;100.00;100166.03;106735;1288;75137;-79
2022/01/08 02:14:34;;;;;;;13.30;6.60;;;;;;;0.56;100.00;100166.75;107002;1288;72438;-81
2022/01/08 02:17:02;;;;;;;13.50;7.30;;;;;;;0.56;100.00;100167.30;107024;1288;74040;-82
2022/01/08 02:19:29;;;;;;;12.90;7.10;;;;;;;0.56;100.00;100174.14;107015;1288;61588;-82
2022/01/08 02:21:59;;;;;;;16.50;8.00;;;;;;;0.55;100.00;100175.21;107013;1288;61592;-82
2022/01/08 02:24:26;;;;;;;11.40;6.80;;;;;;;0.55;100.00;100174.35;106878;1288;75090;-82
2022/01/08 02:26:54;;;;;;;11.30;7.70;;;;;;;0.56;100.00;100169.88;106955;1288;72608;-81
2022/01/08 02:29:22;;;;;;;11.40;7.50;;;;;;;0.56;100.00;100171.48;107037;1288;73144;-80
2022/01/08 02:32:04;;;;;;;12.30;7.00;;;;;;;0.55;100.00;100165.30;106962;1288;60619;-81
2022/01/08 02:34:31;;;;;;;16.70;8.60;;;;;;;0.55;100.00;100172.80;106790;1289;61538;-79
2022/01/08 02:37:00;;;;;;;12.40;7.30;;;;;;;0.55;100.00;100172.80;106982;1288;74566;-80
2022/01/08 02:39:27;;;;;;;12.50;6.90;;;;;;;0.54;100.00;100173.02;106980;1289;70797;-81
2022/01/08 02:41:57;;;;;;;14.40;8.20;;;;;;;0.53;100.00;100170.34;106933;1289;74243;-81
2022/01/08 02:44:26;;;;;;;15.20;7.80;;;;;;;0.52;100.00;100167.30;106810;1289;61541;-81
2022/01/08 02:46:53;;;;;;;14.10;8.60;;;;;;;0.51;100.00;100175.02;106940;1289;60745;-79
2022/01/08 02:49:23;;;;;;;12.10;7.70;;;;;;;0.50;100.00;100173.39;106945;1289;75156;-79
2022/01/08 02:51:52;;;;;;;14.20;8.00;;;;;;;0.49;100.00;100175.02;106807;1289;70988;-79
2022/01/08 02:54:19;;;;;;;20.90;9.90;;;;;;;0.48;100.00;100175.59;106950;1290;73952;-81
2022/01/08 02:56:48;;;;;;;17.20;9.60;;;;;;;0.53;100.00;100179.17;106833;1289;61487;-81
2022/01/08 02:59:15;;;;;;;12.80;7.80;;;;;;;0.57;100.00;100180.96;106978;1289;59117;-81
2022/01/08 03:01:43;;;;;;;14.20;8.30;;;;;;;0.63;100.00;100175.66;106259;1290;660379;-79
2022/01/08 03:04:10;;;;;;;11.90;7.60;;;;;;;0.68;100.00;100174.40;106942;1289;71410;-80
2022/01/08 03:06:37;;;;;;;15.40;7.50;;;;;;;0.72;100.00;100175.05;106967;1290;73900;-79
2022/01/08 03:09:04;;;;;;;13.30;7.00;;;;;;;0.76;100.00;100173.35;106830;1290;61179;-80
2022/01/08 03:11:31;;;;;;;11.70;7.10;;;;;;;0.80;100.00;100174.95;106956;1289;60556;-81
2022/01/08 03:14:02;;;;;;;15.70;7.20;;;;;;;0.83;100.00;100175.05;106968;1288;77059;-81
2022/01/08 03:16:29;;;;;;;15.40;8.60;;;;;;;0.86;100.00;100177.98;106682;1289;72887;-81
2022/01/08 03:18:56;;;;;;;11.10;7.10;;;;;;;0.89;100.00;100181.52;106888;1289;74042;-80
2022/01/08 03:21:23;;;;;;;18.10;7.50;;;;;;;0.90;100.00;100180.39;106835;1290;61501;-81
2022/01/08 03:23:57;;;;;;;17.60;7.90;;;;;;;0.92;100.00;100180.08;106889;1289;60762;-80
2022/01/08 03:26:26;;;;;;;9.80;5.70;;;;;;;0.92;100.00;100189.29;106929;1290;75008;-79
2022/01/08 03:28:54;;;;;;;16.10;8.10;;;;;;;0.93;100.00;100188.36;106958;1290;71461;-79
2022/01/08 03:31:25;;;;;;;14.00;7.10;;;;;;;0.95;100.00;100190.48;106949;1289;73036;-80
2022/01/08 03:33:53;;;;;;;18.40;8.10;;;;;;;0.96;100.00;100195.25;106680;1290;61168;-82
2022/01/08 03:36:22;;;;;;;14.80;7.20;;;;;;;0.98;100.00;100202.23;106898;1289;60559;-80
2022/01/08 03:38:51;;;;;;;11.20;6.40;;;;;;;0.97;100.00;100201.40;106919;1289;75138;-80
2022/01/08 03:41:17;;;;;;;12.00;7.10;;;;;;;0.97;100.00;100197.90;106941;1290;72381;-81
2022/01/08 03:43:44;;;;;;;14.00;8.40;;;;;;;0.97;100.00;100201.56;106881;1290;72782;-80
2022/01/08 03:46:11;;;;;;;17.20;8.20;;;;;;;0.97;100.00;100199.70;106926;1289;61303;-80
2022/01/08 03:48:58;;;;;;;15.10;7.50;;;;;;;0.97;100.00;100200.16;106898;1290;61428;-80
2022/01/08 03:51:24;;;;;;;15.10;8.30;;;;;;;0.98;100.00;100204.83;106848;1289;74382;-80
2022/01/08 03:53:51;;;;;;;13.70;7.40;;;;;;;0.98;100.00;100200.94;106739;1290;72232;-79
2022/01/08 03:56:18;;;;;;;12.40;7.90;;;;;;;1.00;100.00;100195.42;106931;1289;59308;-80
2022/01/08 03:58:45;;;;;;;14.40;7.40;;;;;;;1.02;100.00;100184.83;106864;1290;59670;-79
2022/01/08 04:01:11;;;;;;;9.00;5.40;;;;;;;1.03;99.97;100191.04;106906;1290;61868;-81
2022/01/08 04:03:38;;;;;;;14.60;8.70;;;;;;;1.01;99.88;100190.30;106827;1290;74983;-81
2022/01/08 04:06:05;;;;;;;14.70;8.10;;;;;;;1.03;100.00;100185.08;106934;1289;72603;-80
2022/01/08 04:08:31;;;;;;;15.30;8.40;;;;;;;1.06;99.95;100188.13;106806;1290;59188;-80
2022/01/08 04:10:58;;;;;;;15.00;8.30;;;;;;;1.08;99.99;100187.09;106911;1289;61518;-81
2022/01/08 04:13:28;;;;;;;14.70;8.10;;;;;;;1.11;99.96;100190.52;106762;1289;60643;-81
2022/01/08 04:16:00;;;;;;;14.10;7.90;;;;;;;1.13;99.79;100195.52;106930;1289;76463;-81
2022/01/08 04:18:27;;;;;;;11.70;7.20;;;;;;;1.15;99.48;100194.57;106946;1290;71555;-82
2022/01/08 04:21:22;;;;;;;13.60;7.80;;;;;;;1.16;99.71;100188.15;106915;1290;71839;-80
2022/01/08 04:23:46;;;;;;;16.60;8.00;;;;;;;1.19;99.72;100190.02;106928;1290;59824;-80
2022/01/08 04:26:13;;;;;;;15.40;8.90;;;;;;;1.21;99.95;100193.16;106930;1288;60633;-81
2022/01/08 04:28:39;;;;;;;19.80;8.60;;;;;;;1.25;99.52;100193.41;106831;1290;75087;-80
2022/01/08 04:31:06;;;;;;;14.40;8.40;;;;;;;1.25;99.20;100196.00;106748;1289;70835;-82
2022/01/08 04:33:33;;;;;;;15.90;8.20;;;;;;;1.23;98.96;100194.91;106969;1278;60023;-80
2022/01/08 04:35:59;;;;;;;19.60;9.90;;;;;;;1.23;98.94;100195.64;106858;1277;59462;-81
2022/01/08 04:38:26;;;;;;;18.30;9.00;;;;;;;1.20;98.82;100195.35;107019;1277;64392;-80
2022/01/08 04:40:53;;;;;;;16.70;7.40;;;;;;;1.19;98.62;100194.39;107076;1288;76006;-81
2022/01/08 04:43:22;;;;;;;14.90;7.60;;;;;;;1.18;98.71;100190.98;106890;1290;70518;-81
2022/01/08 04:45:50;;;;;;;13.20;6.90;;;;;;;1.15;98.48;100191.88;106953;1288;74006;-80
2022/01/08 04:48:17;;;;;;;13.90;8.10;;;;;;;1.13;98.26;100186.72;107015;1288;59902;-81
2022/01/08 04:50:53;;;;;;;14.30;7.50;;;;;;;1.11;98.11;100181.13;107141;1278;60240;31
2022/01/08 04:53:19;;;;;;;10.70;5.30;;;;;;;1.09;97.71;100181.98;107165;1277;75041;-81
2022/01/08 04:55:46;;;;;;;14.20;7.20;;;;;;;1.08;97.52;100186.27;107078;1278;71442;-80
2022/01/08 04:58:13;;;;;;;16.00;7.70;;;;;;;1.07;97.48;100192.61;107184;1286;72967;-81
2022/01/08 05:00:41;;;;;;;13.40;6.90;;;;;;;1.05;97.31;100191.04;107148;1287;60961;-82
2022/01/08 05:03:07;;;;;;;11.10;6.80;;;;;;;1.01;97.32;100190.83;107182;1287;61396;-81
2022/01/08 05:05:34;;;;;;;16.50;7.80;;;;;;;0.97;97.28;100186.23;107137;1287;75914;-80
2022/01/08 05:08:01;;;;;;;16.20;7.00;;;;;;;0.93;97.17;100188.83;107115;1286;71584;-80
2022/01/08 05:10:33;;;;;;;20.00;8.30;;;;;;;0.90;97.12;100192.92;107123;1287;72035;-81
2022/01/08 05:13:04;;;;;;;18.70;8.90;;;;;;;0.87;97.44;100193.35;107176;1287;61504;-81
2022/01/08 05:15:32;;;;;;;17.70;8.70;;;;;;;0.85;97.44;100196.81;107015;1287;60657;-81
2022/01/08 05:17:59;;;;;;;18.10;7.70;;;;;;;0.84;97.48;100198.80;107157;1287;76111;-80
2022/01/08 05:20:30;;;;;;;15.20;8.90;;;;;;;0.83;97.91;100193.16;107148;1287;71617;-80
2022/01/08 05:23:00;;;;;;;13.90;8.10;;;;;;;0.83;98.10;100194.55;107156;1287;73993;-81
2022/01/08 05:25:29;;;;;;;10.60;6.60;;;;;;;0.83;98.34;100196.98;107127;1287;61048;-80
2022/01/08 05:27:56;;;;;;;17.30;8.60;;;;;;;0.80;98.11;100200.45;107128;1285;62502;-81
2022/01/08 05:30:24;;;;;;;16.30;8.10;;;;;;;0.80;98.19;100197.88;107114;1287;76201;-82
2022/01/08 05:32:51;;;;;;;16.90;8.30;;;;;;;0.80;98.09;100197.70;107155;1287;71574;-81
2022/01/08 05:35:18;;;;;;;12.60;7.10;;;;;;;0.79;98.00;100201.45;107031;1288;72473;-82
2022/01/08 05:37:45;;;;;;;13.40;8.10;;;;;;;0.78;97.78;100208.87;107131;1287;61651;-82
2022/01/08 05:40:12;;;;;;;16.80;7.80;;;;;;;0.76;97.72;100211.27;107426;1278;62072;-79
2022/01/08 05:45:27;;;;;;;13.30;7.40;;;;;;;0.70;97.64;100213.86;107054;1279;66647;-81
2022/01/08 05:47:54;;;;;;;14.90;7.10;;;;;;;0.65;97.64;100212.20;107068;1288;74142;-81
2022/01/08 05:50:20;;;;;;;17.20;9.40;;;;;;;0.60;97.68;100211.54;106860;1288;60499;-80
2022/01/08 05:52:48;;;;;;;16.80;8.10;;;;;;;0.55;97.64;100213.17;106942;1288;62166;-80
2022/01/08 05:55:17;;;;;;;16.90;9.00;;;;;;;0.50;97.48;100211.11;106916;1290;75284;-81
2022/01/08 05:57:44;;;;;;;13.90;9.00;;;;;;;0.44;97.42;100210.73;107467;1277;71545;-80
2022/01/08 06:00:11;;;;;;;15.00;7.90;;;;;;;0.38;97.53;100212.55;107127;1287;72898;-81
2022/01/08 06:02:38;;;;;;;29.80;10.20;;;;;;;0.34;97.83;100216.58;107043;1287;62649;-82
2022/01/08 06:05:08;;;;;;;35.90;10.90;;;;;;;0.27;98.12;100217.62;107313;1286;59867;-82
2022/01/08 06:07:35;;;;;;;24.60;9.10;;;;;;;0.21;98.07;100225.21;107319;1287;76063;-83
2022/01/08 06:10:03;;;;;;;25.10;11.10;;;;;;;0.15;98.16;100229.13;107138;1288;72495;-83
2022/01/08 06:12:30;;;;;;;19.40;9.70;;;;;;;0.12;98.24;100239.80;107002;1288;74278;-81
2022/01/08 06:14:56;;;;;;;19.40;9.90;;;;;;;0.10;98.49;100246.60;107114;1286;61488;-83
2022/01/08 06:17:24;;;;;;;22.60;10.20;;;;;;;0.09;98.61;100254.01;107034;1288;61466;-83
2022/01/08 06:19:50;;;;;;;22.60;9.50;;;;;;;0.10;98.92;100256.02;107269;1288;75006;-83
2022/01/08 06:22:17;;;;;;;14.90;7.90;;;;;;;0.12;99.09;100254.81;106894;1288;71216;-82
2022/01/08 06:24:44;;;;;;;17.00;9.50;;;;;;;0.13;99.28;100256.23;106902;1288;72954;-81
2022/01/08 06:27:11;;;;;;;18.50;9.10;;;;;;;0.14;99.41;100254.42;107101;1287;61551;-82
2022/01/08 06:29:38;;;;;;;20.20;9.80;;;;;;;0.16;99.46;100257.60;107234;1287;60585;-83
2022/01/08 06:32:24;;;;;;;21.00;10.90;;;;;;;0.19;99.53;100257.89;107496;1277;74929;31
2022/01/08 06:34:50;;;;;;;20.00;9.40;;;;;;;0.22;99.34;100257.10;107157;1286;70356;-82
2022/01/08 06:37:17;;;;;;;18.20;9.90;;;;;;;0.25;99.24;100259.66;107309;1287;72777;-83
2022/01/08 06:42:42;;;;;;;19.00;9.80;;;;;;;0.28;99.07;100260.89;107072;1278;59135;-81
2022/01/08 06:45:09;;;;;;;22.20;10.90;;;;;;;0.26;99.38;100265.20;106935;1289;74066;-82
2022/01/08 06:47:36;;;;;;;15.80;8.60;;;;;;;0.25;99.21;100269.73;106954;1290;71322;-82
2022/01/08 06:50:06;;;;;;;17.10;9.70;;;;;;;0.26;98.98;100279.39;106872;1290;72975;-82
2022/01/08 06:52:33;;;;;;;22.40;9.00;;;;;;;0.27;99.09;100277.59;106869;1289;61493;-82
2022/01/08 06:55:00;;;;;;;21.50;9.60;;;;;;;0.28;98.98;100284.48;106954;1289;60601;-83
2022/01/08 06:57:27;;;;;;;21.00;9.30;;;;;;;0.29;99.07;100280.23;107124;1289;59237;-82
2022/01/08 06:59:53;;;;;;;19.90;9.20;;;;;;;0.30;98.96;100282.38;106527;1290;71398;-82
2022/01/08 07:02:22;;;;;;;17.40;9.20;;;;;;;0.30;98.96;100290.58;106877;1290;60261;-83
2022/01/08 07:04:48;;;;;;;20.00;10.60;;;;;;;0.33;98.85;100290.70;107009;1290;63285;-83
2022/01/08 07:07:15;;;;;;;20.20;8.60;;;;;;;0.35;98.65;100295.92;106903;1289;61385;-82
2022/01/08 07:09:42;;;;;;;22.30;9.50;;;;;;;0.36;98.40;100293.43;106923;1290;59785;-82
2022/01/08 07:12:08;;;;;;;19.10;9.40;;;;;;;0.36;98.38;100298.97;106712;1290;71516;-82
2022/01/08 07:14:35;;;;;;;21.90;9.50;;;;;;;0.37;98.69;100298.42;106979;1290;74101;-83
2022/01/08 07:17:03;;;;;;;25.10;9.60;;;;;;;0.35;98.44;100293.52;106858;1289;59637;-82
2022/01/08 07:19:30;;;;;;;17.50;9.10;;;;;;;0.32;98.51;100291.11;106934;1290;60313;-83
2022/01/08 07:21:57;;;;;;;17.90;9.90;;;;;;;0.28;98.42;100290.23;106726;1290;75287;-82
2022/01/08 07:24:23;;;;;;;19.50;9.80;;;;;;;0.24;98.29;100288.98;106839;1290;72449;-82
2022/01/08 07:26:50;;;;;;;16.90;9.00;;;;;;;0.20;98.01;100286.52;106872;1290;59373;-82
2022/01/08 07:32:09;;;;;;;22.40;9.60;;;;;;;0.07;98.42;100290.66;107830;1278;60712;31
2022/01/08 07:34:36;;;;;;;24.90;11.20;;;;;;;0.02;98.52;100294.02;106824;1289;76048;-83
2022/01/08 07:37:03;;;;;;;15.30;9.10;;;;;;;-0.06;98.80;100296.64;106966;1290;71421;-83
2022/01/08 07:39:30;;;;;;;21.00;10.40;;;;;;;-0.14;98.95;100301.41;107191;1278;73910;-81
2022/01/08 07:41:57;;;;;;;22.60;10.40;;;;;;;-0.17;98.94;100304.81;107001;1288;59060;-83
2022/01/08 07:44:23;;;;;;;25.40;11.30;;;;;;;-0.21;99.36;100301.41;106821;1290;59181;-82
2022/01/08 07:46:50;;;;;;;17.60;10.30;;;;;;;-0.25;99.38;100294.23;107201;1288;74936;-84
2022/01/08 07:49:16;;;;;;;22.60;10.80;;;;;;;-0.28;99.40;100296.91;107033;1287;59281;-83
2022/01/08 07:51:44;;;;;;;25.50;9.90;;;;;;;-0.30;99.71;100296.00;106802;1289;73745;-84
2022/01/08 07:54:11;;;;;;;17.60;10.10;;;;;;;-0.32;99.75;100294.78;107014;1287;58909;-83
2022/01/08 07:56:42;;;;;;;17.70;8.90;;;;;;;-0.35;99.93;100299.02;107118;1288;60597;-83
2022/01/08 07:59:09;;;;;;;24.40;9.60;;;;;;;-0.38;99.95;100298.02;107123;1288;76164;-84
2022/01/08 08:01:36;;;;;;;25.50;11.30;;;;;;;-0.39;99.97;100298.43;106876;1288;71436;-83
2022/01/08 08:04:03;;;;;;;21.20;10.20;;;;;;;-0.39;99.85;100293.73;107130;1287;73654;-84
2022/01/08 08:06:32;;;;;;;24.60;11.00;;;;;;;-0.37;100.00;100298.33;106944;1288;61424;-83
2022/01/08 08:08:59;;;;;;;23.40;10.50;;;;;;;-0.37;99.93;100292.70;107074;1287;61670;-84
2022/01/08 08:11:25;;;;;;;22.40;10.20;;;;;;;-0.34;100.00;100289.58;107816;1277;75063;-83
2022/01/08 08:16:49;;;;;;;18.20;9.70;;;;;;;-0.31;100.00;100285.31;107048;1278;155041;-83
2022/01/08 08:19:17;;;;;;;18.80;9.10;;;;;;;-0.29;100.00;100282.40;106873;1288;59859;-82
2022/01/08 08:21:43;;;;;;;22.40;9.70;;;;;;;-0.27;100.00;100282.23;106574;1290;61934;-82
2022/01/08 08:24:10;;;;;;;21.70;10.10;;;;;;;-0.24;100.00;100282.34;107039;1289;75101;-83
2022/01/08 08:26:38;;;;;;;23.00;11.50;;;;;;;-0.20;100.00;100280.31;107008;1288;71414;-83
2022/01/08 08:29:05;;;;;;;18.10;9.30;;;;;;;-0.17;100.00;100277.30;106885;1290;73228;-83
2022/01/08 08:37:26;;;;;;;22.50;9.10;;;;;;;-0.04;100.00;100280.64;107343;1281;75663;-82
2022/01/08 08:39:53;;;;;;;20.30;9.40;;;;;;;0.01;100.00;100280.70;107155;1280;73127;-83
2022/01/08 08:42:20;;;;;;;22.00;10.00;;;;;;;0.07;100.00;100287.17;106560;1291;73669;-82
2022/01/08 08:44:47;;;;;;;18.80;8.90;;;;;;;0.13;100.00;100287.05;106860;1288;62983;-82
2022/01/08 08:47:14;;;;;;;19.40;9.00;;;;;;;0.20;100.00;100285.13;106913;1289;61929;-82
2022/01/08 08:49:40;;;;;;;22.30;9.60;;;;;;;0.32;100.00;100285.95;107060;1289;75696;-83
2022/01/08 08:52:07;;;;;;;19.40;8.60;;;;;;;0.45;99.95;100279.68;107095;1290;71558;-83
2022/01/08 08:54:34;;;;;;;19.30;8.50;;;;;;;0.55;99.82;100273.52;107038;1288;73142;-83
2022/01/08 08:57:01;;;;;;;18.30;8.40;;;;;;;0.59;99.07;100274.92;106840;1289;60033;-83
2022/01/08 08:59:27;;;;;;;19.20;9.60;;;;;;;0.62;98.68;100272.30;106994;1290;60609;-84
2022/01/08 09:01:54;;;;;;;21.00;10.00;;;;;;;0.65;98.23;100272.39;106873;1290;73964;-83
2022/01/08 09:04:23;;;;;;;17.90;8.70;;;;;;;0.69;98.15;100276.42;106800;1289;71324;-81
2022/01/08 09:24:40;;;;;;;41.40;13.50;;;;;;;1.14;96.75;100278.41;107411;1277;60028;-82
2022/01/08 09:27:07;;;;;;;34.60;12.30;;;;;;;1.20;96.65;100273.15;107212;1287;59591;-81
2022/01/08 09:29:34;;;;;;;36.60;13.20;;;;;;;1.27;96.48;100277.20;107138;1287;76186;-81
2022/01/08 09:34:59;;;;;;;114.50;32.40;;;;;;;1.38;95.63;100279.54;106581;1279;72975;-82
2022/01/08 09:37:26;;;;;;;64.20;22.60;;;;;;;1.46;95.47;100282.55;106572;1290;62571;-80
2022/01/08 09:39:53;;;;;;;50.20;16.10;;;;;;;1.55;95.33;100279.39;106694;1290;59192;-80
2022/01/08 09:42:19;;;;;;;37.20;12.40;;;;;;;1.60;94.48;100274.45;106519;1293;75168;-82
2022/01/08 09:44:46;;;;;;;25.20;10.30;;;;;;;1.64;94.18;100272.00;106724;1290;71513;-81
2022/01/08 09:47:13;;;;;;;23.70;9.60;;;;;;;1.69;94.27;100270.75;106742;1290;73086;-81
2022/01/08 09:49:40;;;;;;;22.00;9.40;;;;;;;1.73;93.81;100271.83;106540;1288;61516;-82
2022/01/08 09:52:07;;;;;;;23.50;9.30;;;;;;;1.76;93.56;100269.45;106713;1290;61173;-82
2022/01/08 09:54:34;;;;;;;22.00;9.20;;;;;;;1.81;93.51;100265.77;106742;1289;75025;-81
2022/01/08 09:57:01;;;;;;;26.70;10.60;;;;;;;1.85;93.26;100264.86;106730;1290;71395;-81
2022/01/08 09:59:28;;;;;;;21.20;9.20;;;;;;;1.89;93.27;100264.19;106726;1290;73043;-82
2022/01/08 10:01:58;;;;;;;28.80;12.80;;;;;;;1.94;93.02;100259.64;106742;1290;61809;-82
2022/01/08 10:04:27;;;;;;;23.60;11.00;;;;;;;1.98;92.67;100260.11;106559;1290;61842;-81
2022/01/08 10:07:21;;;;;;;26.60;12.50;;;;;;;2.04;92.42;100261.92;106605;1290;75131;-81
2022/01/08 10:10:03;;;;;;;44.40;16.50;;;;;;;2.09;92.39;100258.48;106370;1290;72637;-76
2022/01/08 10:12:45;;;;;;;28.90;12.90;;;;;;;2.15;92.28;100258.56;106651;1290;71965;-78
2022/01/08 10:18:00;;;;;;;42.80;15.80;;;;;;;2.30;91.51;100260.19;106724;1289;61883;-78
2022/01/08 10:20:39;;;;;;;188.70;62.30;;;;;;;2.34;91.15;100263.13;106694;1290;74973;-78
2022/01/08 10:23:11;;;;;;;56.70;20.10;;;;;;;2.37;90.95;100259.41;106727;1289;71414;-79
2022/01/08 10:26:00;;;;;;;59.60;19.80;;;;;;;2.43;91.20;100258.90;106711;1290;74064;-78
2022/01/08 10:28:47;;;;;;;42.70;16.30;;;;;;;2.50;90.40;100259.20;106670;1290;61014;-78
2022/01/08 10:31:17;;;;;;;32.00;14.30;;;;;;;2.56;90.34;100254.09;106643;1290;60746;-75
2022/01/08 10:33:53;;;;;;;33.50;14.30;;;;;;;2.62;90.38;100255.30;106367;1293;73818;-78
2022/01/08 10:36:30;;;;;;;26.60;11.60;;;;;;;2.68;90.02;100252.53;106549;1291;71232;-80
2022/01/08 10:38:59;;;;;;;70.20;27.30;;;;;;;2.70;89.42;100250.81;106244;1293;72345;-78
2022/01/08 10:41:28;;;;;;;58.70;23.90;;;;;;;2.72;89.12;100245.86;106520;1291;61321;-77
2022/01/08 10:44:06;;;;;;;28.00;11.90;;;;;;;2.78;89.04;100245.73;106552;1290;61871;-77
2022/01/08 10:46:33;;;;;;;20.30;10.00;;;;;;;2.80;88.66;100244.14;106394;1293;75998;-77
2022/01/08 10:49:00;;;;;;;38.90;17.10;;;;;;;2.85;88.71;100241.42;106395;1290;71444;-78
2022/01/08 10:51:34;;;;;;;17.60;9.30;;;;;;;2.92;88.82;100243.60;106548;1290;72960;-77
2022/01/08 10:54:05;;;;;;;25.40;11.10;;;;;;;3.00;88.30;100239.41;106542;1291;61526;-76
2022/01/08 10:56:44;;;;;;;33.00;14.60;;;;;;;3.01;87.57;100232.11;106562;1290;60087;-77
2022/01/08 10:59:21;;;;;;;39.80;14.70;;;;;;;3.04;87.84;100227.52;106447;1290;74999;-76
2022/01/08 11:01:52;;;;;;;20.80;9.40;;;;;;;3.08;87.30;100224.52;106541;1290;70845;-76
2022/01/08 11:04:47;;;;;;;22.50;10.30;;;;;;;3.08;86.65;100227.46;106366;1292;74304;-77
2022/01/08 11:07:20;;;;;;;19.00;9.50;;;;;;;3.09;86.40;100224.10;106375;1292;62841;-79
2022/01/08 11:09:50;;;;;;;19.40;9.80;;;;;;;3.11;86.14;100220.02;106562;1291;60842;-78
2022/01/08 11:12:24;;;;;;;16.10;7.50;;;;;;;3.15;85.96;100212.69;106432;1293;74690;-80
2022/01/08 11:17:24;;;;;;;17.00;9.00;;;;;;;3.13;86.05;100209.20;106525;1292;74112;-76
2022/01/08 11:19:54;;;;;;;17.60;9.20;;;;;;;3.12;86.41;100209.54;106541;1290;62569;-75
2022/01/08 11:22:23;;;;;;;17.70;7.80;;;;;;;3.13;86.52;100205.02;106403;1292;60825;-76
2022/01/08 11:24:53;;;;;;;22.40;9.80;;;;;;;3.21;86.30;100200.79;106380;1293;75091;-76
2022/01/08 11:27:25;;;;;;;17.90;6.90;;;;;;;3.25;85.87;100203.73;106380;1292;70460;-78
2022/01/08 11:30:06;;;;;;;32.00;12.10;;;;;;;3.33;85.67;100201.02;106356;1291;74144;-79
2022/01/08 11:32:35;;;;;;;50.00;15.00;;;;;;;3.53;85.60;100192.85;106357;1293;62759;-79
2022/01/08 11:35:23;;;;;;;41.80;13.80;;;;;;;3.80;84.27;100191.95;106468;1290;62401;-76
2022/01/08 11:37:52;;;;;;;47.20;16.30;;;;;;;3.95;82.43;100193.48;106389;1292;75051;-77
2022/01/08 11:40:25;;;;;;;40.00;11.40;;;;;;;4.13;81.85;100197.04;106558;1290;71637;-80
2022/01/08 11:42:52;;;;;;;19.50;9.90;;;;;;;4.25;81.92;100190.48;106551;1293;71934;-77
2022/01/08 11:45:28;;;;;;;19.90;10.40;;;;;;;4.36;80.78;100191.32;106380;1292;61676;-76
2022/01/08 11:47:57;;;;;;;35.40;13.00;;;;;;;4.47;79.57;100191.15;106524;1293;60547;-76
2022/01/08 11:50:29;;;;;;;40.20;16.30;;;;;;;4.56;78.56;100183.11;106493;1290;74954;-78
2022/01/08 11:53:23;;;;;;;38.30;16.40;;;;;;;4.70;78.26;100177.89;106475;1291;72633;-79
2022/01/08 11:55:54;;;;;;;35.70;15.00;;;;;;;4.74;77.27;100165.05;106508;1291;74284;-76
2022/01/08 11:58:23;;;;;;;19.70;9.70;;;;;;;4.75;77.24;100163.61;106184;1292;61402;-78
2022/01/08 12:01:11;;;;;;;66.70;24.20;;;;;;;4.70;76.79;100166.29;106530;1293;60677;-75
2022/01/08 12:03:38;;;;;;;165.10;60.90;;;;;;;4.79;77.42;100163.36;106581;1292;73937;-75
2022/01/08 12:06:29;;;;;;;98.50;36.50;;;;;;;4.97;77.04;100164.94;106594;1291;73416;-76
2022/01/08 12:09:08;;;;;;;188.40;69.70;;;;;;;4.98;75.75;100155.93;106576;1291;73211;-75
2022/01/08 12:11:46;;;;;;;136.60;53.20;;;;;;;4.79;75.64;100164.46;106549;1292;59885;-75
2022/01/08 12:14:15;;;;;;;63.70;27.80;;;;;;;4.62;76.27;100158.59;106497;1290;60484;-74
2022/01/08 12:16:44;;;;;;;21.70;11.30;;;;;;;4.52;76.51;100152.91;106535;1292;75579;-78
2022/01/08 12:19:33;;;;;;;25.50;11.20;;;;;;;4.47;76.34;100152.61;106412;1293;71694;-78